Agat, Guam
Current Conditions -  °F | °C
As of 9:54 PM on Wednesday 26 Nov 2014 (Local Time) from PGUM Reporting Station
Few Clouds Few Clouds  
Wind Chill: 27°   Ceiling: Unl
Heat Index: 30°   Visibility: 10mi
Dew Point: 24°   Wind: 7mph
Humidity: 82%   Direction: 50°NE
Pressure: 29.89"   Gusts: NA
Location:  13.38°N, 144.65°E
Report Text: PGUM 261154Z 05006KT 10SM FEW037 27/24 A2989 RMK AO2 SLP114 T02720239 10311 20272 51015
Loading
Personal Weather Stations






























Interactive Weather Map New forecast layout! Learn more

10-Day Weather Forecast

Advertisements
Track Severe Weather on mobile